Time;durP1;ratioP1;P1;durP2;ratioP2;P2;SDS_P1;SDS_P2;PMS_P1;PMS_P2;Temp;Humidity;BMP_temperature;BMP_pressure;BME280_temperature;BME280_humidity;BME280_pressure;Samples;Min_cycle;Max_cycle;Signal;HPM_P1;HPM_P2
2021/06/13 00:00:43;;;;;;;5.00;3.83;;;22.10;99.90;;;;;;5034065;28;20030;-87
2021/06/13 00:03:09;;;;;;;4.00;3.60;;;21.90;99.90;;;;;;5033468;28;20107;-87
2021/06/13 00:05:35;;;;;;;4.95;3.30;;;21.70;99.90;;;;;;5033671;28;20784;-87
2021/06/13 00:08:01;;;;;;;3.90;3.60;;;21.70;99.90;;;;;;5034542;28;20116;-87
2021/06/13 00:10:26;;;;;;;4.35;3.83;;;21.60;99.90;;;;;;5015599;28;20076;-87
2021/06/13 00:12:52;;;;;;;4.90;3.83;;;21.60;99.90;;;;;;5033089;28;20056;-87
2021/06/13 00:15:25;;;;;;;13.07;4.72;;;21.70;99.90;;;;;;5033007;28;20121;-87
2021/06/13 00:17:52;;;;;;;4.53;4.13;;;21.50;99.90;;;;;;5015989;28;20052;-87
2021/06/13 00:20:30;;;;;;;4.15;3.75;;;21.50;99.90;;;;;;5033066;28;20617;-87
2021/06/13 00:22:56;;;;;;;3.90;3.60;;;21.40;99.90;;;;;;5029986;28;20053;-87
2021/06/13 00:25:22;;;;;;;3.97;3.58;;;21.40;99.90;;;;;;5033228;28;20494;-87
2021/06/13 00:27:48;;;;;;;3.90;3.15;;;21.40;99.90;;;;;;5032834;28;20088;-87
2021/06/13 00:30:14;;;;;;;3.45;3.15;;;21.50;99.90;;;;;;5033242;28;20037;-87
2021/06/13 00:32:41;;;;;;;4.32;3.72;;;21.40;99.90;;;;;;5032764;28;20036;-87
2021/06/13 00:35:07;;;;;;;3.50;3.20;;;21.40;99.90;;;;;;5033185;28;20375;-87
2021/06/13 00:37:34;;;;;;;4.18;3.17;;;21.30;99.90;;;;;;5033728;28;20033;-87
2021/06/13 00:40:00;;;;;;;4.68;3.40;;;21.30;99.90;;;;;;5033058;28;20033;-87
2021/06/13 00:42:25;;;;;;;3.95;3.60;;;21.20;99.90;;;;;;5032336;28;20028;-87
2021/06/13 00:44:51;;;;;;;4.90;3.53;;;21.20;99.90;;;;;;5033159;28;20025;-87
2021/06/13 00:47:17;;;;;;;5.45;3.40;;;21.10;99.90;;;;;;5032787;28;20025;-87
2021/06/13 00:49:42;;;;;;;3.47;3.17;;;21.00;99.90;;;;;;5033596;28;20033;-87
2021/06/13 00:52:08;;;;;;;3.92;3.63;;;21.00;99.90;;;;;;5032089;28;20125;-87
2021/06/13 00:54:34;;;;;;;4.80;3.65;;;20.90;99.90;;;;;;5032693;28;20033;-87
2021/06/13 00:57:00;;;;;;;3.50;3.20;;;21.00;99.90;;;;;;5032825;28;20029;-87
2021/06/13 00:59:26;;;;;;;5.60;3.50;;;21.00;99.90;;;;;;5032390;28;20056;-87
2021/06/13 01:01:52;;;;;;;3.65;3.35;;;21.00;99.90;;;;;;5033040;28;20021;-87
2021/06/13 01:04:17;;;;;;;4.25;3.60;;;20.90;99.90;;;;;;5010366;28;20044;-87
2021/06/13 01:07:01;;;;;;;4.05;3.40;;;20.80;99.90;;;;;;5032574;28;20040;-87
2021/06/13 01:09:31;;;;;;;3.38;3.13;;;20.90;99.90;;;;;;5010040;28;20120;-86
2021/06/13 01:12:07;;;;;;;5.38;3.45;;;20.80;99.90;;;;;;5031825;28;20394;-87
2021/06/13 01:14:51;;;;;;;3.90;3.60;;;20.80;99.90;;;;;;5017100;28;20029;-87
2021/06/13 01:17:29;;;;;;;4.82;3.33;;;20.70;99.90;;;;;;5032216;28;20078;-87
2021/06/13 01:20:17;;;;;;;3.95;3.63;;;20.70;99.90;;;;;;5028461;28;20518;-87
2021/06/13 01:23:13;;;;;;;4.85;3.28;;;20.60;99.90;;;;;;5013237;28;20454;-87
2021/06/13 01:25:48;;;;;;;5.57;3.75;;;20.60;99.90;;;;;;5029894;28;20026;-87
2021/06/13 01:28:50;;;;;;;3.33;3.03;;;20.50;99.90;;;;;;5031783;28;20042;-87
2021/06/13 01:31:18;;;;;;;3.78;3.13;;;20.60;99.90;;;;;;5031835;28;20079;-87
2021/06/13 01:33:47;;;;;;;5.72;3.60;;;20.60;99.90;;;;;;5031919;28;20072;-86
2021/06/13 01:36:15;;;;;;;4.40;3.53;;;20.60;99.90;;;;;;5031980;28;20022;-87
2021/06/13 01:38:44;;;;;;;5.15;3.45;;;20.60;99.90;;;;;;5031787;28;20033;-87
2021/06/13 01:41:11;;;;;;;3.53;3.22;;;20.60;99.90;;;;;;5031448;28;20017;-87
2021/06/13 01:43:38;;;;;;;5.65;3.40;;;20.40;99.90;;;;;;5031862;28;20029;-87
2021/06/13 01:46:06;;;;;;;4.00;3.53;;;20.30;99.90;;;;;;5008844;28;20422;-87
2021/06/13 01:48:34;;;;;;;3.85;3.45;;;20.30;99.90;;;;;;5013701;28;20029;-87
2021/06/13 01:51:01;;;;;;;5.25;3.55;;;20.00;99.90;;;;;;5031730;28;20550;-87
2021/06/13 01:53:29;;;;;;;3.78;3.45;;;20.00;99.90;;;;;;5031401;28;20030;-87
2021/06/13 01:55:56;;;;;;;3.80;3.50;;;19.90;99.90;;;;;;5031707;28;20136;-87
2021/06/13 01:58:22;;;;;;;5.18;3.65;;;20.00;99.90;;;;;;5031755;28;20053;-87
2021/06/13 02:00:50;;;;;;;3.58;3.20;;;20.00;99.90;;;;;;5031231;28;20550;-87
2021/06/13 02:03:18;;;;;;;4.40;3.50;;;20.00;99.90;;;;;;5031217;28;20482;-87
2021/06/13 02:05:47;;;;;;;4.40;3.28;;;20.10;99.90;;;;;;5014011;28;20026;-87
2021/06/13 02:08:14;;;;;;;3.85;3.38;;;20.00;99.90;;;;;;5030705;28;20025;-87
2021/06/13 02:10:41;;;;;;;3.85;3.35;;;19.90;99.90;;;;;;5029275;28;20486;-86
2021/06/13 02:13:08;;;;;;;5.50;3.92;;;19.90;99.90;;;;;;5031007;28;20045;-87
2021/06/13 02:15:36;;;;;;;4.47;3.20;;;19.90;99.90;;;;;;5031491;28;20080;-86
2021/06/13 02:18:04;;;;;;;6.97;3.60;;;19.80;99.90;;;;;;5030969;28;20044;-87
2021/06/13 02:20:31;;;;;;;3.92;3.45;;;19.80;99.90;;;;;;5031383;28;20025;-87
2021/06/13 02:22:58;;;;;;;4.40;3.45;;;19.80;99.90;;;;;;5031710;28;20049;-87
2021/06/13 02:25:24;;;;;;;4.90;3.38;;;19.70;99.90;;;;;;5030709;28;20049;-87
2021/06/13 02:27:59;;;;;;;3.70;3.38;;;19.60;99.90;;;;;;5030872;28;20508;-87
2021/06/13 02:30:26;;;;;;;3.55;3.17;;;19.70;99.90;;;;;;5030472;28;20101;-87
2021/06/13 02:32:55;;;;;;;4.53;3.50;;;19.70;99.90;;;;;;5013432;28;20025;-87
2021/06/13 02:35:22;;;;;;;6.00;3.70;;;19.70;99.90;;;;;;5031225;28;20029;-87
2021/06/13 02:37:51;;;;;;;4.45;3.17;;;19.60;99.90;;;;;;5031204;28;20043;-87
2021/06/13 02:40:17;;;;;;;4.07;3.45;;;19.60;99.90;;;;;;5030599;28;20044;-86
2021/06/13 02:42:43;;;;;;;4.20;3.42;;;19.70;99.90;;;;;;5031089;28;20108;-87
2021/06/13 02:45:10;;;;;;;5.18;3.80;;;19.40;99.90;;;;;;5030730;28;20148;-86
2021/06/13 02:47:37;;;;;;;4.15;3.20;;;19.50;1.00;;;;;;5031126;28;20065;-87
2021/06/13 02:50:07;;;;;;;3.47;3.17;;;19.50;99.90;;;;;;5030960;28;20029;-87
2021/06/13 02:52:40;;;;;;;3.85;3.50;;;19.50;1.00;;;;;;5030072;28;20039;-87
2021/06/13 02:55:10;;;;;;;5.75;3.90;;;19.60;99.90;;;;;;5030702;28;20030;-87
2021/06/13 02:57:41;;;;;;;6.07;4.15;;;19.40;99.90;;;;;;5030565;28;20018;-87
2021/06/13 03:00:08;;;;;;;4.03;3.55;;;19.40;1.00;;;;;;5030990;28;20501;-87
2021/06/13 03:02:38;;;;;;;4.35;3.65;;;19.50;1.00;;;;;;5030622;28;20593;-86
2021/06/13 03:05:06;;;;;;;4.95;3.50;;;19.60;99.90;;;;;;5030848;28;20018;-87
2021/06/13 03:07:32;;;;;;;6.05;3.72;;;19.60;99.90;;;;;;5029652;28;20029;-87
2021/06/13 03:10:00;;;;;;;3.45;3.20;;;19.50;1.00;;;;;;5030500;28;20033;-87
2021/06/13 03:12:27;;;;;;;4.85;3.72;;;19.50;1.00;;;;;;5031306;28;20030;-85
2021/06/13 03:14:54;;;;;;;4.50;3.60;;;19.50;1.00;;;;;;5030688;28;20033;-87
2021/06/13 03:17:22;;;;;;;4.75;3.83;;;19.40;1.00;;;;;;5030757;28;20068;-87
2021/06/13 03:19:49;;;;;;;4.28;3.55;;;19.40;1.00;;;;;;5031637;28;20057;-87
2021/06/13 03:22:15;;;;;;;6.55;3.30;;;19.40;1.00;;;;;;5033603;28;20136;-86
2021/06/13 03:24:44;;;;;;;4.05;3.35;;;19.40;1.00;;;;;;5034598;28;20026;-86
2021/06/13 03:27:10;;;;;;;3.95;3.40;;;19.40;1.00;;;;;;5034190;28;20147;-87
2021/06/13 03:29:41;;;;;;;4.60;3.10;;;19.40;1.00;;;;;;5034308;28;20029;-87
2021/06/13 03:32:09;;;;;;;4.60;3.35;;;19.40;1.00;;;;;;5034208;28;20434;-86
2021/06/13 03:34:36;;;;;;;4.55;4.15;;;19.10;1.00;;;;;;5034789;28;20034;-87
2021/06/13 03:37:04;;;;;;;4.07;3.67;;;18.80;1.00;;;;;;5033396;28;20545;-87
2021/06/13 03:39:30;;;;;;;4.30;3.72;;;18.80;1.00;;;;;;5033888;28;20087;-86
2021/06/13 03:41:56;;;;;;;4.95;4.00;;;18.90;1.00;;;;;;5034435;28;20026;-87
2021/06/13 03:44:22;;;;;;;5.45;3.50;;;19.00;1.00;;;;;;5033858;28;20034;-87
2021/06/13 03:46:48;;;;;;;3.90;3.60;;;19.10;1.00;;;;;;5017078;28;20505;-87
2021/06/13 03:49:17;;;;;;;4.15;3.33;;;18.70;1.00;;;;;;5033728;28;20457;-87
2021/06/13 03:51:43;;;;;;;4.50;4.05;;;18.60;1.00;;;;;;5016044;28;20022;-87
2021/06/13 03:54:10;;;;;;;4.10;3.28;;;18.70;1.00;;;;;;5033816;28;20041;-87
2021/06/13 03:56:45;;;;;;;4.95;3.80;;;19.00;1.00;;;;;;5033759;28;20029;-86
2021/06/13 03:59:11;;;;;;;5.05;3.60;;;19.00;1.00;;;;;;5034214;28;20038;-86
2021/06/13 04:01:42;;;;;;;5.45;3.50;;;19.00;1.00;;;;;;5033999;28;20033;-87
2021/06/13 04:04:11;;;;;;;3.30;2.90;;;19.00;1.00;;;;;;5033699;28;20500;-87
2021/06/13 04:06:39;;;;;;;5.70;3.95;;;19.00;1.00;;;;;;5033110;28;20041;-87
2021/06/13 04:09:05;;;;;;;4.53;3.45;;;18.90;1.00;;;;;;5033392;28;20025;-87
2021/06/13 04:11:32;;;;;;;3.83;3.53;;;19.00;1.00;;;;;;5034008;28;20049;-87
2021/06/13 04:14:00;;;;;;;4.00;3.50;;;19.10;1.00;;;;;;5016081;28;20030;-87
2021/06/13 04:16:26;;;;;;;4.35;3.45;;;18.90;1.00;;;;;;5033457;28;20184;-87
2021/06/13 04:18:52;;;;;;;4.43;3.67;;;18.90;1.00;;;;;;5033339;28;20120;-87
2021/06/13 04:21:19;;;;;;;5.55;3.60;;;18.90;1.00;;;;;;5032381;28;20490;-89
2021/06/13 04:23:46;;;;;;;5.53;3.45;;;19.00;1.00;;;;;;5032824;28;20069;-86
2021/06/13 04:26:17;;;;;;;3.67;3.22;;;18.90;1.00;;;;;;5033864;28;20521;-85
2021/06/13 04:28:44;;;;;;;5.05;3.75;;;19.10;1.00;;;;;;5032179;28;20036;-86
2021/06/13 04:31:15;;;;;;;4.20;3.65;;;19.00;1.00;;;;;;5032879;28;20505;-87
2021/06/13 04:33:44;;;;;;;5.20;3.42;;;19.00;1.00;;;;;;5033121;28;20048;-87
2021/06/13 04:36:11;;;;;;;6.32;3.60;;;19.10;1.00;;;;;;5032839;28;20030;-86
2021/06/13 04:38:38;;;;;;;3.63;3.30;;;19.20;1.00;;;;;;5033136;28;20032;-86
2021/06/13 04:41:05;;;;;;;3.78;3.42;;;19.20;1.00;;;;;;5033381;28;20018;-86
2021/06/13 04:43:33;;;;;;;3.70;3.40;;;19.10;1.00;;;;;;5033394;28;20497;-87
2021/06/13 04:45:58;;;;;;;4.93;3.45;;;19.20;1.00;;;;;;5032924;28;20079;-86
2021/06/13 04:48:24;;;;;;;3.47;3.03;;;19.20;1.00;;;;;;5032823;28;20025;-87
2021/06/13 04:50:50;;;;;;;3.58;3.25;;;19.30;1.00;;;;;;5032901;28;20041;-86
2021/06/13 04:53:46;;;;;;;3.95;3.10;;;19.30;1.00;;;;;;5032416;28;20038;-87
2021/06/13 04:56:15;;;;;;;4.78;3.38;;;19.40;1.00;;;;;;5030509;28;20028;-86
2021/06/13 04:58:41;;;;;;;5.65;3.38;;;19.30;1.00;;;;;;5013586;28;20108;-86
2021/06/13 05:01:08;;;;;;;4.55;3.50;;;19.30;1.00;;;;;;5014816;28;20116;-86
2021/06/13 05:03:33;;;;;;;3.72;3.20;;;19.30;1.00;;;;;;5032839;28;20041;-86
2021/06/13 05:05:59;;;;;;;4.45;3.65;;;19.50;1.00;;;;;;5032399;28;20029;-86
2021/06/13 05:08:24;;;;;;;3.63;3.33;;;19.40;1.00;;;;;;5032203;28;20052;-86
2021/06/13 05:10:50;;;;;;;4.30;3.92;;;19.30;1.00;;;;;;5033079;28;20450;-86
2021/06/13 05:13:18;;;;;;;3.88;3.50;;;19.40;1.00;;;;;;5032058;28;20124;-86
2021/06/13 05:15:44;;;;;;;4.45;3.50;;;19.50;1.00;;;;;;5010385;28;20040;-86
2021/06/13 05:18:10;;;;;;;4.70;3.50;;;19.50;1.00;;;;;;5032147;28;20029;-86
2021/06/13 05:20:36;;;;;;;4.68;3.60;;;19.50;1.00;;;;;;5032247;28;20045;-86
2021/06/13 05:23:03;;;;;;;4.47;3.97;;;19.40;1.00;;;;;;5032506;28;20068;-86
2021/06/13 05:25:33;;;;;;;4.63;3.88;;;19.50;1.00;;;;;;5032332;28;20117;-89
2021/06/13 05:28:00;;;;;;;6.50;3.85;;;19.60;1.00;;;;;;5032361;28;20022;-86
2021/06/13 05:30:28;;;;;;;5.10;3.70;;;19.80;1.00;;;;;;5032036;28;20032;-87
2021/06/13 05:32:54;;;;;;;4.03;3.53;;;19.80;1.00;;;;;;5031498;28;20536;-86
2021/06/13 05:35:20;;;;;;;4.78;3.63;;;20.00;1.00;;;;;;5031977;28;20121;-87
2021/06/13 05:37:46;;;;;;;3.42;3.13;;;19.90;1.00;;;;;;5032859;28;20057;-87
2021/06/13 05:40:13;;;;;;;5.18;3.08;;;19.80;1.00;;;;;;5031724;28;20025;-87
2021/06/13 05:42:39;;;;;;;4.30;3.50;;;19.70;1.00;;;;;;5030320;28;20379;-87
2021/06/13 05:45:10;;;;;;;3.85;3.25;;;19.70;1.00;;;;;;5031943;28;20026;-87
2021/06/13 05:47:36;;;;;;;6.65;3.80;;;19.60;1.00;;;;;;5031504;28;20476;-86
2021/06/13 05:50:04;;;;;;;6.18;3.60;;;19.70;1.00;;;;;;5032358;28;20025;-86
2021/06/13 05:52:30;;;;;;;4.65;3.50;;;19.80;1.00;;;;;;5031191;28;20117;-86
2021/06/13 05:54:57;;;;;;;4.20;3.28;;;19.80;1.00;;;;;;5031588;28;20123;-87
2021/06/13 05:57:25;;;;;;;3.90;3.00;;;19.80;1.00;;;;;;5031678;28;20029;-86
2021/06/13 05:59:50;;;;;;;5.30;3.70;;;19.90;1.00;;;;;;5031222;28;20097;-87
2021/06/13 06:02:16;;;;;;;4.97;3.35;;;19.90;1.00;;;;;;5031478;28;20037;-86
2021/06/13 06:04:41;;;;;;;3.80;2.97;;;19.90;1.00;;;;;;5031702;28;20025;-87
2021/06/13 06:07:07;;;;;;;4.07;3.60;;;20.00;1.00;;;;;;5031060;28;20108;-86
2021/06/13 06:09:33;;;;;;;3.95;3.50;;;19.90;1.00;;;;;;5031457;28;20398;-87
2021/06/13 06:11:58;;;;;;;4.90;3.45;;;20.10;1.00;;;;;;5031657;28;20025;-86
2021/06/13 06:14:24;;;;;;;4.68;3.38;;;20.10;1.00;;;;;;5031405;28;20033;-86
2021/06/13 06:16:50;;;;;;;5.00;3.15;;;20.10;1.00;;;;;;5031072;28;20033;-87
2021/06/13 06:19:15;;;;;;;3.88;3.50;;;20.00;1.00;;;;;;5031404;28;20032;-91
2021/06/13 06:21:41;;;;;;;4.82;3.50;;;20.10;1.00;;;;;;5013395;28;20053;-90
2021/06/13 06:24:07;;;;;;;4.18;3.78;;;20.10;1.00;;;;;;5031067;28;20036;-90
2021/06/13 06:26:32;;;;;;;5.88;3.58;;;20.20;1.00;;;;;;5014456;28;20057;-91
2021/06/13 06:28:58;;;;;;;4.25;3.78;;;20.20;1.00;;;;;;5014433;28;20017;-90
2021/06/13 06:31:23;;;;;;;4.55;3.58;;;20.20;1.00;;;;;;5013180;28;20033;-89
2021/06/13 06:33:49;;;;;;;7.20;4.20;;;20.30;1.00;;;;;;5013221;28;20041;-90
2021/06/13 06:36:15;;;;;;;4.03;3.63;;;20.40;1.00;;;;;;5014790;28;20056;-92
2021/06/13 06:38:40;;;;;;;3.80;3.05;;;20.50;1.00;;;;;;5014658;28;20068;-92
2021/06/13 06:41:06;;;;;;;3.53;3.22;;;20.50;1.00;;;;;;5031972;28;20025;-92
2021/06/13 06:43:31;;;;;;;3.70;3.30;;;20.70;1.00;;;;;;5032169;28;20022;-93
2021/06/13 06:45:57;;;;;;;4.97;3.78;;;20.80;1.00;;;;;;5009759;28;20029;-93
2021/06/13 06:48:23;;;;;;;5.07;3.15;;;20.90;1.00;;;;;;5031816;28;20038;-92
2021/06/13 06:50:48;;;;;;;3.97;3.63;;;20.80;1.00;;;;;;5014486;28;20029;-93
2021/06/13 06:53:14;;;;;;;4.40;4.00;;;20.80;1.00;;;;;;5014635;28;20029;-93
2021/06/13 06:55:40;;;;;;;5.38;3.78;;;20.90;1.00;;;;;;5015572;28;20071;-88
2021/06/13 06:58:05;;;;;;;4.78;3.92;;;20.80;1.00;;;;;;5034722;28;20021;-87
2021/06/13 07:00:31;;;;;;;4.28;3.40;;;20.80;1.00;;;;;;5034577;28;20069;-87
2021/06/13 07:02:58;;;;;;;7.35;3.55;;;20.90;1.00;;;;;;5034279;28;20104;-87
2021/06/13 07:05:24;;;;;;;4.57;3.70;;;21.00;1.00;;;;;;5034507;28;20029;-87
2021/06/13 07:07:50;;;;;;;3.67;3.38;;;21.00;1.00;;;;;;5035406;28;20394;-88
2021/06/13 07:10:16;;;;;;;3.47;3.17;;;21.00;1.00;;;;;;5034745;28;20068;-87
2021/06/13 07:12:42;;;;;;;3.50;3.05;;;21.00;1.00;;;;;;5034361;28;20033;-89
2021/06/13 07:15:09;;;;;;;5.68;3.80;;;21.20;1.00;;;;;;5016916;28;20032;-89
2021/06/13 07:17:35;;;;;;;5.45;3.50;;;21.20;99.90;;;;;;5034534;28;20025;-90
2021/06/13 07:20:02;;;;;;;4.03;3.58;;;21.20;1.00;;;;;;5017219;28;20076;-89
2021/06/13 07:22:28;;;;;;;5.22;3.60;;;21.40;1.00;;;;;;5034914;28;20386;-90
2021/06/13 07:24:53;;;;;;;8.02;3.90;;;21.40;99.90;;;;;;5016824;28;20033;-89
2021/06/13 07:27:20;;;;;;;6.63;3.75;;;21.50;99.90;;;;;;5034378;28;20040;-90
2021/06/13 07:29:46;;;;;;;3.88;3.17;;;21.60;99.90;;;;;;5034175;28;20036;-89
2021/06/13 07:32:12;;;;;;;4.15;3.10;;;21.70;99.90;;;;;;5016964;28;20021;-90
2021/06/13 07:34:37;;;;;;;3.58;3.13;;;21.80;99.90;;;;;;5016970;28;20037;-89
2021/06/13 07:37:05;;;;;;;3.40;3.10;;;21.70;99.90;;;;;;5034185;28;20087;-89
2021/06/13 07:39:31;;;;;;;3.47;3.17;;;21.80;99.90;;;;;;5034231;28;20390;-90
2021/06/13 07:41:58;;;;;;;4.75;3.13;;;21.80;99.90;;;;;;5013258;28;20056;-89
2021/06/13 07:44:25;;;;;;;6.25;3.22;;;21.90;99.90;;;;;;5033188;28;20030;-89
2021/06/13 07:46:51;;;;;;;6.63;3.20;;;21.90;99.90;;;;;;5034814;28;20486;-90
2021/06/13 07:49:17;;;;;;;4.03;2.95;;;22.00;99.90;;;;;;5034513;28;20032;-89
2021/06/13 07:51:42;;;;;;;4.82;2.92;;;22.10;99.90;;;;;;5012014;28;20026;-91
2021/06/13 07:54:08;;;;;;;3.88;2.88;;;22.20;99.90;;;;;;5033654;28;20041;-90
2021/06/13 07:56:33;;;;;;;3.53;2.75;;;22.20;99.90;;;;;;5015890;28;20497;-90
2021/06/13 07:58:59;;;;;;;3.15;2.63;;;22.30;99.90;;;;;;5017298;28;20026;-90
2021/06/13 08:01:25;;;;;;;3.55;2.15;;;22.30;99.90;;;;;;5034316;28;20090;-90
2021/06/13 08:03:51;;;;;;;2.88;2.20;;;22.30;99.90;;;;;;5033671;28;20022;-90
2021/06/13 08:06:17;;;;;;;4.60;2.55;;;22.50;99.90;;;;;;5032613;28;20057;-89
2021/06/13 08:08:43;;;;;;;3.63;2.30;;;22.60;99.90;;;;;;5016106;28;20033;-90
2021/06/13 08:11:09;;;;;;;3.50;2.50;;;22.90;99.90;;;;;;5033695;28;20025;-90
2021/06/13 08:13:35;;;;;;;3.03;2.60;;;23.00;99.90;;;;;;5033420;28;20061;-90
2021/06/13 08:16:00;;;;;;;3.85;2.40;;;22.90;99.90;;;;;;5033797;28;20025;-90
2021/06/13 08:18:26;;;;;;;2.67;2.47;;;23.00;99.90;;;;;;5033787;28;20022;-90
2021/06/13 08:20:52;;;;;;;2.50;2.30;;;23.20;99.90;;;;;;5033940;28;20025;-90
2021/06/13 08:23:18;;;;;;;3.08;2.38;;;23.30;99.90;;;;;;5033273;28;20065;-90
2021/06/13 08:25:44;;;;;;;2.58;2.33;;;23.30;99.90;;;;;;5016355;28;20122;-89
2021/06/13 08:28:10;;;;;;;3.08;2.42;;;23.30;99.90;;;;;;5015019;28;20457;-90
2021/06/13 08:30:35;;;;;;;2.67;2.20;;;23.30;99.90;;;;;;5033164;28;20559;-90
2021/06/13 08:33:01;;;;;;;2.83;2.30;;;23.40;99.90;;;;;;5033531;28;20039;-90
2021/06/13 08:35:28;;;;;;;2.92;2.08;;;23.50;99.90;;;;;;5015425;28;20136;-90
2021/06/13 08:37:54;;;;;;;3.58;1.90;;;23.50;99.90;;;;;;5034288;28;20018;-89
2021/06/13 08:40:23;;;;;;;4.15;2.33;;;23.70;99.90;;;;;;5032940;28;20029;-90
2021/06/13 08:42:49;;;;;;;3.25;2.00;;;23.70;99.90;;;;;;5032872;28;20029;-89
2021/06/13 08:45:16;;;;;;;2.25;2.10;;;23.80;99.90;;;;;;5032490;28;20525;-90
2021/06/13 08:47:43;;;;;;;4.80;2.10;;;23.90;99.90;;;;;;5016061;28;20079;-90
2021/06/13 08:50:10;;;;;;;3.15;2.17;;;24.00;99.90;;;;;;5033703;28;20049;-90
2021/06/13 08:52:36;;;;;;;2.38;2.17;;;23.90;99.90;;;;;;5031147;28;20028;-90
2021/06/13 08:55:05;;;;;;;3.53;2.05;;;24.10;99.90;;;;;;5032895;28;20026;-89
2021/06/13 08:57:31;;;;;;;3.60;2.10;;;24.20;99.90;;;;;;5033138;28;20030;-90
2021/06/13 08:59:56;;;;;;;4.63;2.00;;;24.30;99.90;;;;;;5032976;28;20057;-89
2021/06/13 09:02:22;;;;;;;18.33;5.90;;;24.50;99.90;;;;;;5032294;28;20036;-89
2021/06/13 09:04:48;;;;;;;3.63;2.33;;;24.80;99.90;;;;;;5033274;28;20048;-90
2021/06/13 09:07:22;;;;;;;7.72;3.10;;;24.90;99.90;;;;;;5032547;28;20375;-90
2021/06/13 09:09:47;;;;;;;3.83;2.00;;;25.00;99.90;;;;;;5032108;28;20409;-90
2021/06/13 09:12:13;;;;;;;2.38;2.03;;;25.00;99.90;;;;;;5032276;28;20013;-89
2021/06/13 09:14:42;;;;;;;3.92;1.65;;;25.10;99.90;;;;;;5032223;28;20410;-89
2021/06/13 09:17:12;;;;;;;2.55;2.00;;;25.10;99.90;;;;;;5032491;28;20028;-89
2021/06/13 09:20:08;;;;;;;20.42;6.55;;;25.20;99.90;;;;;;5033043;28;20029;-89
2021/06/13 09:22:34;;;;;;;4.28;2.30;;;25.40;99.90;;;;;;5031660;28;20041;-89
2021/06/13 09:25:09;;;;;;;9.98;3.70;;;25.50;99.90;;;;;;5032009;28;20394;-90
2021/06/13 09:27:35;;;;;;;3.65;1.92;;;25.60;99.90;;;;;;5009555;28;20117;-89
2021/06/13 09:30:01;;;;;;;4.68;2.30;;;25.70;99.90;;;;;;5032720;28;20040;-89
2021/06/13 09:32:27;;;;;;;2.40;1.88;;;25.70;99.90;;;;;;5032990;28;20025;-90
2021/06/13 09:35:19;;;;;;;7.50;2.35;;;25.90;99.90;;;;;;5032950;28;20034;-88
2021/06/13 09:38:15;;;;;;;8.77;3.00;;;25.90;99.90;;;;;;5010148;28;20037;-91
2021/06/13 09:40:47;;;;;;;8.68;3.80;;;25.80;99.90;;;;;;5012953;28;20124;-91
2021/06/13 09:43:22;;;;;;;3.10;2.00;;;25.90;99.90;;;;;;5033333;28;20060;-91
2021/06/13 09:45:50;;;;;;;3.50;2.10;;;25.90;99.90;;;;;;5014289;28;20112;-91
2021/06/13 09:48:16;;;;;;;2.22;2.08;;;25.90;99.90;;;;;;5032154;28;20037;-91
2021/06/13 09:50:45;;;;;;;3.78;2.30;;;25.80;99.90;;;;;;5032523;28;20029;-91
2021/06/13 09:53:28;;;;;;;2.17;1.98;;;25.90;99.90;;;;;;5032315;28;20067;-90
2021/06/13 09:56:00;;;;;;;3.13;2.00;;;26.10;99.90;;;;;;5013862;28;20026;-90
2021/06/13 09:58:25;;;;;;;2.60;1.67;;;26.00;99.90;;;;;;5032776;28;20030;-91
2021/06/13 10:00:51;;;;;;;2.75;2.20;;;26.00;99.90;;;;;;5014404;28;20029;-88
2021/06/13 10:03:29;;;;;;;3.97;2.17;;;25.90;99.90;;;;;;5030952;28;20065;-89
2021/06/13 10:05:58;;;;;;;3.08;1.75;;;26.20;99.90;;;;;;5031755;28;20045;-90
2021/06/13 10:08:28;;;;;;;2.00;1.80;;;26.50;99.90;;;;;;5030767;28;20036;-89
2021/06/13 10:10:55;;;;;;;4.45;2.28;;;26.60;99.90;;;;;;5032402;28;20486;-90
2021/06/13 10:13:37;;;;;;;3.80;2.20;;;26.80;99.90;;;;;;5031240;28;20060;-90
2021/06/13 10:16:03;;;;;;;4.15;2.08;;;26.70;99.90;;;;;;5009157;28;20044;-90
2021/06/13 10:18:28;;;;;;;2.00;1.90;;;26.80;99.90;;;;;;5031793;28;20395;-90
2021/06/13 10:21:11;;;;;;;2.85;2.25;;;26.90;99.90;;;;;;5013829;28;20394;-90
2021/06/13 10:23:40;;;;;;;2.90;2.20;;;26.80;99.90;;;;;;5016317;28;20041;-90
2021/06/13 10:26:07;;;;;;;2.28;2.03;;;26.70;99.90;;;;;;5031412;28;20063;-90
2021/06/13 10:28:34;;;;;;;1.98;1.80;;;26.70;99.90;;;;;;5031520;28;20121;-92
2021/06/13 10:31:00;;;;;;;2.10;1.90;;;26.90;99.90;;;;;;5014504;28;20071;-90
2021/06/13 10:33:26;;;;;;;3.10;2.33;;;27.10;99.90;;;;;;5009224;28;20416;-90
2021/06/13 10:35:51;;;;;;;3.25;2.10;;;27.00;99.90;;;;;;5013946;28;20028;-90
2021/06/13 10:38:17;;;;;;;2.63;2.00;;;26.80;99.90;;;;;;5013187;28;20478;-90
2021/06/13 10:40:43;;;;;;;2.78;2.10;;;26.70;99.90;;;;;;5031869;28;20025;-90
2021/06/13 10:43:09;;;;;;;2.15;1.95;;;26.70;99.90;;;;;;5030950;28;20567;-89
2021/06/13 10:45:35;;;;;;;2.50;2.30;;;26.90;99.90;;;;;;5030707;28;20037;-90
2021/06/13 10:48:08;;;;;;;2.70;2.22;;;27.10;99.90;;;;;;5013396;28;20116;-90
2021/06/13 10:50:35;;;;;;;2.60;2.20;;;27.30;99.90;;;;;;5015831;28;20022;-90
2021/06/13 10:53:03;;;;;;;2.45;2.20;;;27.20;99.90;;;;;;5031382;28;20037;-89
2021/06/13 10:55:50;;;;;;;4.63;2.50;;;27.50;99.90;;;;;;5030396;28;20034;-89
2021/06/13 10:58:52;;;;;;;2.20;2.00;;;27.60;99.90;;;;;;5030973;28;20029;-89
2021/06/13 11:01:38;;;;;;;2.45;2.13;;;28.40;99.90;;;;;;5030557;28;20036;-90
2021/06/13 11:04:06;;;;;;;2.58;2.08;;;27.80;99.90;;;;;;5030364;28;20072;-90
2021/06/13 11:06:43;;;;;;;2.40;2.20;;;27.70;99.90;;;;;;5030283;28;20056;-90
2021/06/13 11:09:13;;;;;;;2.35;2.05;;;27.90;99.90;;;;;;5030508;28;20030;-90
2021/06/13 11:11:41;;;;;;;6.45;2.60;;;27.90;99.90;;;;;;5031085;28;20036;-89
2021/06/13 11:14:36;;;;;;;4.85;2.47;;;27.40;99.90;;;;;;5031067;28;20377;-90
2021/06/13 11:17:01;;;;;;;3.85;2.30;;;27.30;99.90;;;;;;5010705;28;20481;-90
2021/06/13 11:19:29;;;;;;;3.33;2.70;;;27.20;99.90;;;;;;5030627;28;20025;-90
2021/06/13 11:22:16;;;;;;;3.53;3.03;;;27.30;99.90;;;;;;5030510;28;20056;-89
2021/06/13 11:24:51;;;;;;;2.95;2.55;;;27.40;99.90;;;;;;4969638;28;20027;-90
2021/06/13 11:27:17;;;;;;;3.63;2.35;;;27.70;99.90;;;;;;4953440;28;20046;-90
2021/06/13 11:29:55;;;;;;;5.30;2.58;;;27.90;99.90;;;;;;4969820;28;20472;-90
2021/06/13 11:32:49;;;;;;;3.85;2.45;;;27.80;99.90;;;;;;4978710;28;20129;-90
2021/06/13 11:35:28;;;;;;;4.07;2.60;;;28.00;99.90;;;;;;4970906;28;20038;-93
2021/06/13 11:38:09;;;;;;;2.85;2.30;;;27.90;99.90;;;;;;4970513;28;20041;-90
2021/06/13 11:40:46;;;;;;;3.42;2.53;;;27.70;99.90;;;;;;4970427;28;20039;-89
2021/06/13 11:43:14;;;;;;;2.90;2.38;;;28.10;99.90;;;;;;4957689;28;20049;-88
2021/06/13 11:46:05;;;;;;;3.22;2.45;;;28.40;99.90;;;;;;4973250;28;20115;-91
2021/06/13 11:48:36;;;;;;;2.53;2.25;;;28.50;99.90;;;;;;4973689;28;20047;-85
2021/06/13 11:51:04;;;;;;;2.90;2.50;;;28.20;99.90;;;;;;4973100;28;20019;-84
2021/06/13 11:53:58;;;;;;;3.05;1.98;;;28.40;99.90;;;;;;4973038;28;20038;-92
2021/06/13 11:56:36;;;;;;;3.05;2.30;;;28.60;99.90;;;;;;4972218;28;20404;-86
2021/06/13 11:59:20;;;;;;;5.80;3.00;;;28.90;99.90;;;;;;4970120;28;20047;-87
2021/06/13 12:01:54;;;;;;;2.72;2.20;;;29.10;99.90;;;;;;5002725;28;20501;-84
2021/06/13 12:04:20;;;;;;;2.30;2.10;;;29.70;99.90;;;;;;5033024;28;20116;-83
2021/06/13 12:06:46;;;;;;;4.10;2.00;;;30.10;99.90;;;;;;5033547;28;20513;-84
2021/06/13 12:09:15;;;;;;;5.30;2.42;;;31.10;99.90;;;;;;5033864;28;20029;-84
2021/06/13 12:11:44;;;;;;;3.22;2.42;;;32.00;99.90;;;;;;5032897;28;20482;-84
2021/06/13 12:14:22;;;;;;;3.55;2.10;;;33.40;99.90;;;;;;5033379;28;20029;-84
2021/06/13 12:16:50;;;;;;;2.97;2.20;;;35.40;99.90;;;;;;5032768;28;20056;-84
2021/06/13 12:19:35;;;;;;;5.10;2.38;;;36.10;99.90;;;;;;5032817;28;20088;-84
2021/06/13 12:22:32;;;;;;;4.85;2.47;;;37.10;99.90;;;;;;5032919;28;20048;-84
2021/06/13 12:27:48;;;;;;;2.50;2.30;;;37.00;99.90;;;;;;5033147;28;20137;-84
2021/06/13 12:30:17;;;;;;;2.20;2.10;;;36.70;99.90;;;;;;5033488;28;20048;-84
2021/06/13 12:32:56;;;;;;;2.60;2.40;;;37.30;99.90;;;;;;5032758;28;20156;-84
2021/06/13 12:35:28;;;;;;;3.92;2.42;;;38.80;99.90;;;;;;5033171;28;20048;-85
2021/06/13 12:38:09;;;;;;;2.92;2.25;;;38.40;99.90;;;;;;5033983;28;20017;-84
2021/06/13 12:40:37;;;;;;;3.03;2.20;;;38.20;99.90;;;;;;5032892;28;20056;-85
2021/06/13 12:43:04;;;;;;;2.50;2.30;;;38.20;99.90;;;;;;5032724;28;20501;-84
2021/06/13 12:45:30;;;;;;;3.05;2.20;;;38.50;99.90;;;;;;5032727;28;20049;-84
2021/06/13 12:47:59;;;;;;;2.30;2.10;;;38.80;99.90;;;;;;5032919;28;20041;-85
2021/06/13 12:50:26;;;;;;;2.40;2.20;;;38.10;99.90;;;;;;5032751;28;20516;-85
2021/06/13 12:52:54;;;;;;;2.60;2.40;;;38.00;99.90;;;;;;5033329;28;20494;-85
2021/06/13 12:55:21;;;;;;;2.10;2.00;;;38.10;99.90;;;;;;5032569;28;20429;-84
2021/06/13 12:57:49;;;;;;;3.22;2.42;;;38.80;99.90;;;;;;5032529;28;20024;-84
2021/06/13 13:00:17;;;;;;;2.53;2.33;;;38.50;99.90;;;;;;5010747;28;20034;-85
2021/06/13 13:02:43;;;;;;;3.15;2.33;;;38.60;99.90;;;;;;5032287;28;20390;-85